Tiempo atmosférico en la estación meteorológica de Alajar, Huelva (572 m.)



Fecha
DESCASC
Temp. máxima en grados centígrados (hora)
DESCASC
Temp. mínima en grados centígrados (hora)
DESCASC
Temp. media en grados centígrados
DESCASC
Racha de viento máxima en m/sg (hora)
DESCASC
Velocidad máxima media en intervalos de 10 minutos(hora)
DESCASC
Precipitaciones diarias en mm
DESCASC
Precipitaciones de 00:00 a 06:00 en mm
DESCASC
Precipitaciones de 06:00 a 12:00 en mm
DESCASC
Precipitaciones de 12:00 a 18:00 en mm
DESCASC
Precipitaciones de 18:00 a 24:00 en mm
DESCASC
15-10-2019 19 (15:50) 7.5 (00:00) 13.3 8.89 (21:40) 6.94 (22:50) 0 0 0 0 0
14-10-2019 20.1 (15:10) 11.1 (00:00) 15.6 11.11 (13:20) 5.83 (17:00) 11.2 0.2 8.8 1.4 0.8
21-09-2019 18.9 (18:00) 14.4 (00:00) 16.6 10 (21:20) 5.83 (20:50) 5.4 0 0.4 2 3
22-09-2019 20.8 (17:30) 12.8 (00:00) 16.8 14.44 (08:20) 10.28 (08:20) 10.2 10.2 0 0 0
13-10-2019 25.9 (15:50) 11 (00:00) 18.4 9.17 (18:20) 5.56 (16:00) 0 0 0 0 0
02-10-2019 26.4 (16:10) 11.7 (00:00) 19 15.83 (01:00) 10 (03:40) 0 0 0 0 0
20-09-2019 23.4 (14:00) 14.9 (00:00) 19.1 10 (14:40) 5.28 (13:10) 0.6 0 0 0 0.6
25-09-2019 26.4 (16:50) 14.2 (00:00) 20.3 16.11 (06:40) 9.72 (06:50) 0 0 0 0 0
01-10-2019 26.1 (16:20) 15.2 (00:00) 20.7 15.28 (12:10) 8.89 (08:40) 0 0 0 0 0
23-09-2019 27.5 (17:30) 13.9 (00:00) 20.7 12.78 (21:40) 8.06 (22:30) 0 0 0 0 0
11-10-2019 26.4 (15:10) 16.4 (00:00) 21.4 7.78 (15:00) 4.17 (15:20) 0 0 0 0 0
12-10-2019 26.6 (16:10) 16.4 (00:00) 21.5 9.17 (16:50) 5.83 (17:00) 0 0 0 0 0
04-10-2019 28.6 (16:20) 14.9 (00:00) 21.8 14.44 (01:00) 8.61 (01:00) 0 0 0 0 0
18-09-2019 28.5 (16:40) 15.4 (00:00) 21.9 7.22 (14:10) 3.89 (17:10) 0 0 0 0 0
05-10-2019 28.8 (15:20) 15 (00:00) 21.9 12.5 (22:10) 8.61 (21:00) 0 0 0 0 0
03-10-2019 28.9 (14:50) 15.2 (00:00) 22 12.22 (00:50) 7.78 (02:30) 0 0 0 0 0
19-09-2019 29 (16:10) 15.1 (00:00) 22.1 11.67 (01:50) 7.78 (02:00) 0 0 0 0 0
24-09-2019 29.5 (15:20) 16.1 (00:00) 22.8 14.44 (22:30) 9.17 (22:30) 0 0 0 0 0
26-09-2019 30.7 (16:30) 15.3 (00:00) 23 13.33 (00:30) 9.17 (00:50) 0 0 0 0 0
06-10-2019 31.6 (16:10) 14.7 (00:00) 23.2 12.22 (02:00) 7.22 (02:10) 0 0 0 0 0
16-09-2019 30 (17:20) 16.7 (00:00) 23.4 8.61 (19:10) 5.28 (19:20) 0 0 0 0 0
17-09-2019 29.8 (16:30) 17.2 (00:00) 23.5 9.72 (19:00) 5.56 (19:10) 0 0 0 0 0
27-09-2019 31.1 (15:30) 17.3 (00:00) 24.2 11.39 (23:40) 7.5 (23:59) 0 0 0 0 0
29-09-2019 31.5 (16:10) 17.3 (00:00) 24.4 10.28 (01:20) 7.78 (01:20) 0 0 0 0 0
30-09-2019 32.2 (15:50) 18.1 (00:00) 25.2 9.17 (02:40) 4.72 (02:50) 0 0 0 0 0
28-09-2019 32.6 (17:00) 18 (00:00) 25.3 12.22 (00:20) 8.06 (00:10) 0 0 0 0 0
09-10-2019 32.5 (16:00) 18.6 (00:00) 25.6 13.61 (22:30) 8.61 (23:40) 0 0 0 0 0
10-10-2019 32 (16:10) 19.1 (00:00) 25.6 11.67 (00:30) 7.5 (00:30) 0 0 0 0 0
08-10-2019 33.5 (15:50) 19.3 (00:00) 26.4 9.44 (00:40) 6.67 (00:30) 0 0 0 0 0
07-10-2019 33.2 (17:30) 20.2 (00:00) 26.7 11.11 (03:10) 8.06 (08:30) 0 0 0 0 0

Gráficas

Temp. máximas Temp. mínimas Temp. medias Precipitaciones Rachas de viento máximas Velocidades máximas media en intervalos de 10 minutos

Datos horarios

Fecha y hora oficial Temperatura (ºC) Velocidad del viento (km/h) Dirección del viento Racha (km/h) Dirección de racha Precipitación (mm) Presión (hPa) Tendencia (hPa) Humedad (%)
2019-10-15 23:00:00 13.2 21 Norte 32 Norte 0 955.3 0.8 57
2019-10-15 22:00:00 13.3 16 Norte 32 Norte 0 955 0.6 56
2019-10-15 21:00:00 13.8 15 Norte 28 Nordeste 0 954.9 0.4 55
2019-10-15 20:00:00 14.5 15 Norte 27 Norte 0 954.5 -0.1 52
2019-10-15 19:00:00 16.5 13 Norte 22 Norte 0 954.4 -0.3 48
2019-10-15 18:00:00 17.8 10 Norte 25 Nordeste 0 954.5 -0.8 43
2019-10-15 17:00:00 18.3 5 Norte 20 Este 0 954.6 -1.3 41
2019-10-15 16:00:00 17.8 9 Nordeste 19 Noroeste 0 954.7 -1.5 43
2019-10-15 15:00:00 17.1 5 Noroeste 21 Este 0 955.3 -1.1 43
2019-10-15 14:00:00 15.9 8 Nordeste 27 Noroeste 0 955.9 -0.3 55
2019-10-15 13:00:00 14.2 12 Norte 26 Norte 0 956.2 0.5 58
2019-10-15 12:00:00 13.1 12 Norte 24 Norte 0 956.4 1.1 68
2019-10-15 11:00:00 11.7 14 Nordeste 22 Norte 0 956.2 1.1 75
2019-10-15 10:00:00 10.7 8 Norte 22 Norte 0 955.7 1.1 81
2019-10-15 09:00:00 7.9 3 Oeste 12 Oeste 0 955.3 1.1 91
2019-10-15 08:00:00 7.9 3 Sur 11 Oeste 0 955.1 0.9 92
2019-10-15 07:00:00 8.7 4 Sudeste 23 Noroeste 0 954.6 -0.1 85
2019-10-15 06:00:00 9.2 8 Norte 18 Norte 0 954.2 -0.4 82
2019-10-15 05:00:00 8.6 5 Norte 12 Norte 0 954.2 -0.5 85
2019-10-15 04:00:00 8.8 2 Norte 13 Nordeste 0 954.7 0.5 84
2019-10-15 03:00:00 9.5 3 Nordeste 14 Norte 0 954.6 0.5 82
2019-10-15 02:00:00 9.4 7 Nordeste 10 Nordeste 0 954.7 1.1 90
2019-10-15 01:00:00 10.6 7 Norte 27 Norte 0 954.2 1 83
2019-10-15 00:00:00 11.5 14 Norte 29 Norte 0 954.1 1.5 81
2019-10-14 23:00:00 11.1 6 Noroeste 16 Norte 0 953.6 1.8 88
2019-10-14 22:00:00 12.1 5 Noroeste 18 Noroeste 0 953.2 1.9 84
2019-10-14 21:00:00 12.3 6 Noroeste 28 Noroeste 0 952.6 1.5 86
2019-10-14 20:00:00 13 11 Noroeste 27 Norte 0 951.8 1.3 93
2019-10-14 19:00:00 13.3 14 Noroeste 26 Oeste 0.8 951.3 1.3 87
2019-10-14 18:00:00 13.5 19 Noroeste 38 Oeste 1.4 951.1 1 95
2019-10-14 17:00:00 15.5 21 Noroeste 37 Noroeste 0 950.5 -0.1 79
2019-10-14 16:00:00 18.3 18 Oeste 36 Sudoeste 0 950 -0.8 54
2019-10-14 15:00:00 19.8 16 Oeste 37 Oeste 0 950.1 -0.5 49
2019-10-14 14:00:00 18.5 15 Oeste 40 Oeste 0 950.6 0.4 55
2019-10-14 13:00:00 17.7 15 Oeste 30 Oeste 0 950.8 1.3 61
2019-10-14 12:00:00 16.4 14 Noroeste 28 Noroeste 0 950.6 2 71
2019-10-14 11:00:00 14.5 13 Oeste 25 Noroeste 0 950.2 2.3 77
2019-10-14 10:00:00 12.9 7 Sur 32 Noroeste 0.2 949.5 2 92
2019-10-14 09:00:00 13.3 14 Noroeste 27 Noroeste 0 948.6 2.2 99
2019-10-14 08:00:00 13.8 13 Noroeste 24 Noroeste 0.2 947.9 1 100
2019-10-14 07:00:00 14.3 10 Oeste 34 Sudoeste 8.4 947.5 0.4 100
2019-10-14 06:00:00 15.5 19 Sudoeste 36 Sudoeste 0.2 946.4 -0.2 100
2019-10-14 05:00:00 15.2 14 Sudoeste 39 Sur 0 946.9 0.1 98
2019-10-14 04:00:00 15.1 11 Oeste 22 Oeste 0 947.1 -0.1 91
2019-10-14 03:00:00 15.5 7 Sudoeste 17 Sudoeste 0 946.6 -0.9 79
2019-10-14 02:00:00 16.3 6 Sudoeste 10 Sudoeste 0 946.8 -1 69
2019-10-14 01:00:00 16.4 5 Nordeste 9 Este 0 947.2 -0.3 60
2019-10-14 00:00:00 16.1 4 Nordeste 10 Este 0 947.5 -0.1 59
2019-10-13 23:00:00 17.2 4 Oeste 8 Este 0 947.8 0.2 53
2019-10-13 22:00:00 18 2 Nordeste 6 Noroeste 0 947.5 -0.4 53
2019-10-13 21:00:00 20.1 4 Oeste 14 Sudoeste 0 947.6 -0.1 45
2019-10-13 20:00:00 21.9 7 Sudoeste 19 Sudoeste 0 947.6 -0.5 39
2019-10-13 19:00:00 24 12 Sudoeste 33 Sur 0 947.9 -0.5 33
2019-10-13 18:00:00 25.6 16 Sudoeste 31 Sudoeste 0 947.7 -1.3 36
2019-10-13 17:00:00 25.7 16 Sudoeste 32 Sudoeste 0 948.1 -1.7 37
2019-10-13 16:00:00 25.6 20 Sudoeste 28 Sudoeste 0 948.4 -2 38
2019-10-13 15:00:00 24.7 14 Sudoeste 26 Sudoeste 0 949 -1.5 43
2019-10-13 14:00:00 23.5 10 Sudoeste 23 Sur 0 949.8 -0.7 46
2019-10-13 13:00:00 21.4 13 Sur 22 Sur 0 950.4 0.2 53
2019-10-13 12:00:00 19.8 8 Sur 19 Sudeste 0 950.5 0.4 60
2019-10-13 11:00:00 17.3 4 Sur 12 Sudoeste 0 950.5 0.6 73
2019-10-13 10:00:00 14.9 2 Este 7 Nordeste 0 950.2 0.4 87
2019-10-13 09:00:00 11.9 4 Nordeste 9 Nordeste 0 950.1 0.6 100
2019-10-13 08:00:00 11.6 6 Nordeste 9 Este 0 949.9 0.5 100
2019-10-13 07:00:00 11.9 7 Nordeste 10 Nordeste 0 949.8 0.2 100
2019-10-13 06:00:00 12 3 Norte 9 Nordeste 0 949.5 -0.4 96
2019-10-13 05:00:00 12.8 7 Nordeste 9 Nordeste 0 949.4 -0.8 98
2019-10-13 04:00:00 13.7 4 Nordeste 8 Nordeste 0 949.6 -0.9 95
2019-10-13 03:00:00 15.2 3 Sur 13 Sudoeste 0 949.9 -0.5 95
2019-10-13 02:00:00 15.4 7 Sudoeste 17 Sudoeste 0 950.2 0 97
2019-10-13 01:00:00 15.5 9 Sudoeste 14 Sudoeste 0 950.5 0.8 97
2019-10-13 00:00:00 16.4 5 Sur 15 Sudoeste 0 950.4 0.8 92
2019-10-12 23:00:00 17.7 8 Sudoeste 20 Oeste 0 950.2 0.9 90
2019-10-12 22:00:00 18.3 9 Sudoeste 15 Oeste 0 949.7 0.4 88
2019-10-12 21:00:00 19.5 5 Sudoeste 9 Oeste 0 949.6 0.2 78
2019-10-12 20:00:00 20.8 6 Sudoeste 21 Sudoeste 0 949.3 -0.1 72
2019-10-12 19:00:00 23.2 13 Sudoeste 24 Sudoeste 0 949.3 -0.1 58
2019-10-12 18:00:00 23.8 13 Sudoeste 33 Sudoeste 0 949.4 -0.5 57
2019-10-12 17:00:00 25.2 21 Sudoeste 33 Sudoeste 0 949.4 -1.2 52
2019-10-12 16:00:00 26.2 17 Sudoeste 30 Sur 0 949.4 -1.5 46
2019-10-12 15:00:00 25.3 11 Sudoeste 22 Sudoeste 0 949.9 -1 46
2019-10-12 14:00:00 26.4 12 Sudoeste 23 Sudoeste 0 950.6 -0.1 45
2019-10-12 13:00:00 25 10 Sudoeste 25 Sudoeste 0 950.9 1 45
2019-10-12 12:00:00 24.1 8 Sur 18 Sur 0 950.9 1 47
2019-10-12 11:00:00 22.2 6 Sur 15 Este 0 950.7 1.1 50
2019-10-12 10:00:00 21.6 7 Sudeste 15 Este 0 949.9 0.2 48
2019-10-12 09:00:00 19.1 6 Nordeste 11 Este 0 949.9 0.1 64
2019-10-12 08:00:00 18.5 7 Nordeste 13 Nordeste 0 949.6 -0.3 65
2019-10-12 07:00:00 18.8 4 Noroeste 21 Sudoeste 0 949.7 -0.6 67
2019-10-12 06:00:00 19.3 5 Este 11 Este 0 949.8 -1.2 62
2019-10-12 05:00:00 20.5 3 Sur 13 Este 0 949.9 -1.6 57
2019-10-12 04:00:00 20.8 6 Este 12 Nordeste 0 950.3 -1.3 57
2019-10-12 03:00:00 20.1 4 Nordeste 14 Nordeste 0 951 -1.4 59
2019-10-12 02:00:00 19.2 4 Este 13 Nordeste 0 951.5 -0.9 68
2019-10-12 01:00:00 19.4 5 Noroeste 10 Norte 0 951.6 0 70
2019-10-12 00:00:00 19.4 4 Norte 7 Norte 0 952.4 0.6 67
2019-10-11 23:00:00 20.2 4 Este 7 Este 0 952.4 1.2 59
2019-10-11 22:00:00 21 3 Norte 11 Sur 0 951.6 0.4 55
2019-10-11 21:00:00 22.3 3 Sudoeste 18 Sur 0 951.8 0.8 48
2019-10-11 20:00:00 23.3 8 Sur 17 Sur 0 951.2 -0.6 43
2019-10-11 19:00:00 24.5 10 Sudeste 19 Sudoeste 0 951.2 -0.8 39
2019-10-11 18:00:00 25.6 7 Sudeste 23 Sur 0 951 -1.4 36
2019-10-11 17:00:00 25.4 9 Sur 25 Sudoeste 0 951.8 -0.8 39
2019-10-11 16:00:00 25.7 11 Sur 27 Sur 0 952 -1.5 37
2019-10-11 15:00:00 26 14 Sur 28 Sur 0 952.4 -1.3 36
2019-10-11 14:00:00 24.5 6 Sudeste 20 Sur 0 952.6 -0.8 42
2019-10-11 13:00:00 24.6 13 Sur 24 Sudeste 0 953.5 0.5 43
2019-10-11 12:00:00 23.3 10 Sur 21 Sur 0 953.7 1.2 49
2019-10-11 11:00:00 21.5 9 Sudeste 17 Sudeste 0 953.4 1 56
2019-10-11 10:00:00 19.5 4 Este 12 Nordeste 0 953 0.7 64
2019-10-11 09:00:00 17.6 8 Este 13 Este 0 952.5 0.5 73
2019-10-11 08:00:00 17 7 Este 11 Este 0 952.4 0.5 75
2019-10-11 07:00:00 16.5 8 Este 12 Este 0 952.3 0.1 74
2019-10-11 06:00:00 17.1 7 Este 14 Este 0 952 -0.3 68
2019-10-11 05:00:00 17.3 7 Nordeste 9 Nordeste 0 951.9 -0.4 60
2019-10-11 04:00:00 17.5 4 Nordeste 9 Este 0 952.2 -0.5 66
2019-10-11 03:00:00 17.2 2 Este 5 Este 0 952.3 -0.2 69
2019-10-11 02:00:00 17.9 2 Noroeste 9 Este 0 952.3 0.1 64
2019-10-11 01:00:00 18.4 4 Nordeste 7 Este 0 952.7 0.6 62
2019-10-11 00:00:00 19.4 2 Sudeste 9 Nordeste 0 952.5 0.8 58
2019-10-10 23:00:00 20.1 4 Este 9 Nordeste 0 952.2 0.8 55
2019-10-10 22:00:00 21.4 2 Norte 10 Norte 0 952.1 1.2 51
2019-10-10 21:00:00 23.5 6 Norte 9 Norte 0 951.7 0.9 45
2019-10-10 20:00:00 26.7 8 Oeste 17 Sudoeste 0 951.4 0.4 37
2019-10-10 19:00:00 29.8 10 Sudoeste 19 Sudoeste 0 950.9 -0.3 31
2019-10-10 18:00:00 30.7 10 Sur 20 Sudoeste 0 950.8 -0.7 28
2019-10-10 17:00:00 31.1 6 Sur 22 Sur 0 951 -1.3 27
2019-10-10 16:00:00 31.5 12 Sudoeste 24 Sur 0 951.2 -1.5 27
2019-10-10 15:00:00 31.3 10 Sudoeste 20 Sudoeste 0 951.5 -1.3 27
2019-10-10 14:00:00 29.7 5 Oeste 22 Sudoeste 0 952.3 -0.3 31
2019-10-10 13:00:00 28.5 9 Sudoeste 18 Sudeste 0 952.7 0.6 33
2019-10-10 12:00:00 26.3 9 Sur 18 Sur 0 952.8 1.4 33
2019-10-10 11:00:00 24.4 9 Sur 16 Sur 0 952.6 1.6 34
2019-10-10 10:00:00 23.1 5 Sudeste 12 Este 0 952.1 1.4 36
2019-10-10 09:00:00 20 8 Este 10 Este 0 951.4 0.8 39
2019-10-10 08:00:00 20 6 Nordeste 9 Nordeste 0 951 0.5 44
2019-10-10 07:00:00 19.4 6 Nordeste 9 Nordeste 0 950.7 -0.1 52
2019-10-10 06:00:00 19.6 2 Sudoeste 10 Nordeste 0 950.6 -0.3 53
2019-10-10 05:00:00 19.7 4 Este 10 Nordeste 0 950.5 -0.4 51
2019-10-10 04:00:00 20.9 8 Nordeste 10 Nordeste 0 950.8 -0.3 34
2019-10-10 03:00:00 21.6 6 Norte 10 Norte 0 950.9 -0.1 30
2019-10-10 02:00:00 22.5 11 Nordeste 31 Norte 0 950.9 -0.1 30
2019-10-10 01:00:00 22.4 19 Norte 42 Nordeste 0 951.1 0.4 33
2019-10-10 00:00:00 22 26 Norte 46 Norte 0 951 0.4 35
2019-10-09 23:00:00 22.4 28 Norte 49 Nordeste 0 951 0.7 36
2019-10-09 22:00:00 23.5 28 Norte 39 Nordeste 0 950.7 0.5 39
2019-10-09 21:00:00 24.4 20 Norte 36 Norte 0 950.6 0.7 38
2019-10-09 20:00:00 25.5 18 Norte 28 Norte 0 950.3 0.3 42
2019-10-09 19:00:00 27.9 12 Norte 23 Noroeste 0 950.2 -0.1 39
2019-10-09 18:00:00 29.3 13 Norte 27 Noroeste 0 949.9 -0.6 38
2019-10-09 17:00:00 29.6 18 Norte 31 Noroeste 0 950 -1.2 37
2019-10-09 16:00:00 32.1 14 Sudoeste 26 Sudoeste 0 950.3 -1.5 28
2019-10-09 15:00:00 31.2 6 Oeste 21 Sur 0 950.5 -1.4 29
2019-10-09 14:00:00 30.7 6 Sur 17 Sudoeste 0 951.2 -0.4 31
2019-10-09 13:00:00 29.1 9 Sur 18 Sur 0 951.8 0.6 35
2019-10-09 12:00:00 27.5 5 Sudoeste 12 Sudoeste 0 951.9 1.1 38
2019-10-09 11:00:00 24.8 4 Sudoeste 8 Sur 0 951.6 0.9 47
2019-10-09 10:00:00 22.9 2 Sudeste 9 Nordeste 0 951.2 0.9 56
2019-10-09 09:00:00 19.2 4 Nordeste 12 Noroeste 0 950.8 0.8 68
2019-10-09 08:00:00 19.2 2 Sur 28 Norte 0 950.7 0.8 69
2019-10-09 07:00:00 19.2 4 Noroeste 11 Oeste 0 950.3 0.1 64
2019-10-09 06:00:00 22.3 2 Oeste 24 Norte 0 950 -0.7 43
2019-10-09 05:00:00 24.3 13 Norte 30 Nordeste 0 949.9 -1.1 33
2019-10-09 04:00:00 25.1 19 Norte 36 Norte 0 950.2 -1.4 33
2019-10-09 03:00:00 24.6 25 Norte 39 Nordeste 0 950.7 -1.3 41
2019-10-09 02:00:00 24.2 28 Norte 40 Norte 0 951 -1.2 46
2019-10-09 01:00:00 22.9 15 Nordeste 28 Norte 0 951.6 0.1 52
2019-10-09 00:00:00 19.3 3 Noroeste 8 Noroeste 0 952 0.5 61
2019-10-08 23:00:00 20.9 5 Noroeste 9 Oeste 0 952.2 1 54
2019-10-08 22:00:00 22 3 Sudeste 6 Oeste 0 951.5 0.8 47
2019-10-08 21:00:00 24.3 4 Oeste 14 Noroeste 0 951.5 0.9 39
2019-10-08 20:00:00 26.6 8 Oeste 24 Oeste 0 951.2 0.5 34
2019-10-08 19:00:00 29.3 15 Oeste 27 Oeste 0 950.7 -0.3 29
2019-10-08 18:00:00 32.3 10 Sudoeste 22 Sudoeste 0 950.6 -1 21
2019-10-08 17:00:00 32.9 9 Oeste 23 Sudoeste 0 950.7 -1.5 20
2019-10-08 16:00:00 33.4 12 Sudoeste 20 Oeste 0 951 -1.9 19
2019-10-08 15:00:00 33 12 Sudoeste 22 Sudoeste 0 951.6 -1.5 19
2019-10-08 14:00:00 32.3 10 Sudoeste 22 Sudoeste 0 952.2 -0.9 20
2019-10-08 13:00:00 30.8 9 Sudoeste 20 Sudoeste 0 952.9 0.1 21
2019-10-08 12:00:00 29.5 9 Sur 15 Sur 0 953.1 0.9 22
2019-10-08 11:00:00 27.2 9 Sur 14 Sur 0 953.1 1.4 26
2019-10-08 10:00:00 25.8 6 Sudeste 11 Sudeste 0 952.8 1.4 29
2019-10-08 09:00:00 22 7 Nordeste 9 Nordeste 0 952.2 0.9 36
2019-10-08 08:00:00 21.7 3 Norte 10 Nordeste 0 951.7 0.4 35
2019-10-08 07:00:00 22.6 3 Nordeste 9 Nordeste 0 951.4 -0.1 33
2019-10-08 06:00:00 22.8 2 Norte 14 Nordeste 0 951.3 -0.5 33
2019-10-08 05:00:00 23.3 8 Nordeste 12 Nordeste 0 951.3 -0.5 31
2019-10-08 04:00:00 23.4 8 Nordeste 17 Nordeste 0 951.5 -0.5 28
2019-10-08 03:00:00 24.2 6 Norte 19 Nordeste 0 951.8 -0.2 25
2019-10-08 02:00:00 24.5 8 Nordeste 31 Norte 0 951.8 -0.5 23
2019-10-08 01:00:00 24.9 19 Norte 34 Nordeste 0 952 -0.3 25
2019-10-08 00:00:00 25.3 22 Norte 32 Nordeste 0 952 0.1 25
2019-10-07 23:00:00 24.9 14 Nordeste 23 Nordeste 0 952.3 0.8 26
2019-10-07 22:00:00 23.4 5 Norte 17 Nordeste 0 952.3 1 31
2019-10-07 21:00:00 26.5 8 Este 26 Norte 0 951.9 0.5 27
2019-10-07 20:00:00 27.4 14 Norte 18 Norte 0 951.5 0.1 27
2019-10-07 19:00:00 31 9 Nordeste 18 Norte 0 951.3 -0.4 21
2019-10-07 18:00:00 32.3 7 Este 20 Este 0 951.4 -0.7 17
2019-10-07 17:00:00 32.7 6 Norte 27 Noroeste 0 951.4 -1.2 16
2019-10-07 16:00:00 32.2 7 Nordeste 22 Norte 0 951.7 -1.5 16
2019-10-07 15:00:00 32.3 9 Este 21 Este 0 952.1 -1.1 13
2019-10-07 14:00:00 31.4 6 Nordeste 27 Norte 0 952.6 -0.4 8
2019-10-07 13:00:00 29.4 16 Norte 28 Norte 0 953.2 0.7 11
2019-10-07 12:00:00 28.2 13 Nordeste 34 Norte 0 953.2 1 16
2019-10-07 11:00:00 25.7 24 Norte 32 Nordeste 0 953 0.9 20
2019-10-07 10:00:00 24.3 26 Norte 35 Nordeste 0 952.5 0.7 30
2019-10-07 09:00:00 22.7 24 Norte 36 Norte 0 952.2 0.5 28
2019-10-07 08:00:00 23.1 21 Norte 35 Norte 0 952.1 0.3 26
2019-10-07 07:00:00 22.4 26 Norte 39 Nordeste 0 951.8 -0.5 24
2019-10-07 06:00:00 22.6 21 Norte 34 Nordeste 0 951.7 -1.2 27
2019-10-07 05:00:00 22.4 25 Norte 39 Nordeste 0 951.8 -1.9 30
2019-10-07 04:00:00 22.1 26 Nordeste 40 Norte 0 952.3 -1.6 35
2019-10-07 03:00:00 21.6 26 Norte 39 Norte 0 952.9 -0.9 42
2019-10-07 02:00:00 20.4 5 Noroeste 14 Norte 0 953.7 0.2 40
2019-10-07 01:00:00 22 8 Norte 20 Norte 0 953.9 0.3 32
2019-10-07 00:00:00 22.7 8 Norte 34 Norte 0 953.8 0.6 33
2019-10-06 23:00:00 23.6 21 Norte 32 Norte 0 953.5 0.8 28
2019-10-06 22:00:00 22.9 19 Norte 34 Norte 0 953.6 1 29
2019-10-06 21:00:00 24.6 24 Norte 37 Norte 0 953.2 0.6 26
2019-10-06 20:00:00 26 21 Norte 36 Norte 0 952.7 0 24
2019-10-06 19:00:00 27.7 13 Norte 24 Norte 0 952.6 -0.5 27
2019-10-06 18:00:00 29.3 13 Norte 29 Nordeste 0 952.6 -0.9 21
2019-10-06 17:00:00 30.8 12 Sudoeste 27 Oeste 0 952.7 -1.4 21
2019-10-06 16:00:00 31.3 11 Sudoeste 22 Sudoeste 0 953.1 -1.1 19
2019-10-06 15:00:00 30.7 9 Sudoeste 19 Sudoeste 0 953.5 -0.7 20
2019-10-06 14:00:00 29.2 10 Sur 18 Sudoeste 0 954.1 -0.1 23
2019-10-06 13:00:00 27.5 6 Sur 13 Sudoeste 0 954.2 0.6 25
2019-10-06 12:00:00 25.8 9 Sudoeste 15 Sudoeste 0 954.2 1.4 27
2019-10-06 11:00:00 23.3 5 Sudoeste 10 Sur 0 954.2 2 32
2019-10-06 10:00:00 20.5 0 Calma 9 Nordeste 0 953.6 1.5 41
2019-10-06 09:00:00 15.7 6 Nordeste 14 Nordeste 0 952.8 0.7 42
2019-10-06 08:00:00 14.7 3 Norte 6 Norte 0 952.2 0.2 41
2019-10-06 07:00:00 15.8 2 Nordeste 9 Norte 0 952.1 -0.1 39
2019-10-06 06:00:00 16.4 5 Norte 13 Norte 0 952.1 -0.4 42
2019-10-06 05:00:00 15.7 2 Oeste 12 Nordeste 0 952 -0.3 50
2019-10-06 04:00:00 17.4 8 Norte 28 Noroeste 0 952.2 0.1 53
2019-10-06 03:00:00 17.4 18 Norte 37 Noroeste 0 952.5 0.4 53
2019-10-06 02:00:00 18.3 23 Norte 44 Norte 0 952.3 0.1 54
2019-10-06 01:00:00 20.8 24 Norte 38 Norte 0 952.1 0.6 47
2019-10-06 00:00:00 20.8 21 Norte 42 Norte 0 952.1 0.9 47
2019-10-05 23:00:00 20 6 Sur 45 Norte 0 952.2 1 49
2019-10-05 22:00:00 20.3 28 Norte 42 Nordeste 0 951.5 0.7 48
2019-10-05 21:00:00 20.5 31 Norte 40 Nordeste 0 951.2 0.5 48
2019-10-05 20:00:00 21.6 19 Norte 36 Nordeste 0 951.2 0.5 39
2019-10-05 19:00:00 24.6 17 Norte 30 Nordeste 0 950.8 0 26
2019-10-05 18:00:00 26.5 13 Norte 24 Noroeste 0 950.7 -0.4 22
2019-10-05 17:00:00 27.1 11 Norte 25 Norte 0 950.7 -1.1 27
2019-10-05 16:00:00 27.3 9 Oeste 23 Sudoeste 0 950.8 -1.1 35
2019-10-05 15:00:00 28.6 13 Sudoeste 23 Sudoeste 0 951.1 -0.8 35
2019-10-05 14:00:00 25.9 14 Sudoeste 23 Sudoeste 0 951.8 0.1 42
2019-10-05 13:00:00 25.4 9 Oeste 20 Sudoeste 0 951.9 0.8 44
2019-10-05 12:00:00 23.7 9 Sudoeste 16 Sudoeste 0 951.9 1.2 50
2019-10-05 11:00:00 21.5 6 Sur 9 Sudoeste 0 951.7 1.5 56
2019-10-05 10:00:00 19.6 0 Calma 3 Sudoeste 0 951.1 1 66
2019-10-05 09:00:00 15.4 4 Nordeste 10 Nordeste 0 950.7 0.6 80
2019-10-05 08:00:00 15.7 5 Noroeste 9 Norte 0 950.2 0 79
2019-10-05 07:00:00 15.8 5 Noroeste 24 Norte 0 950.1 -0.4 78
2019-10-05 06:00:00 17.1 19 Norte 29 Norte 0 950.1 -0.6 72
2019-10-05 05:00:00 17.4 20 Norte 36 Noroeste 0 950.2 -0.4 70
2019-10-05 04:00:00 16.9 23 Norte 36 Norte 0 950.5 -0.5 73
2019-10-05 03:00:00 17.3 22 Norte 35 Nordeste 0 950.7 -0.4 71
2019-10-05 02:00:00 18.5 25 Norte 38 Noroeste 0 950.6 -0.7 67
2019-10-05 01:00:00 19.5 25 Norte 39 Norte 0 951 -0.2 63
2019-10-05 00:00:00 20.6 20 Norte 33 Norte 0 951.1 0.1 59
2019-10-04 23:00:00 20.6 15 Norte 23 Nordeste 0 951.3 0.5 59
2019-10-04 22:00:00 21.1 16 Norte 29 Norte 0 951.2 0.7 57
2019-10-04 21:00:00 21.2 18 Norte 28 Norte 0 951 0.3 54
2019-10-04 20:00:00 22 17 Norte 24 Norte 0 950.8 0.1 51
2019-10-04 19:00:00 23.9 15 Norte 27 Norte 0 950.5 -0.6 48
2019-10-04 18:00:00 25.5 15 Noroeste 22 Noroeste 0 950.7 -1 47
2019-10-04 17:00:00 28.2 9 Sudoeste 20 Sudoeste 0 950.7 -1.8 40
2019-10-04 16:00:00 28.1 9 Oeste 20 Oeste 0 951.1 -1.8 37
2019-10-04 15:00:00 27.5 9 Sudoeste 20 Sudoeste 0 951.7 -1.4 37
2019-10-04 14:00:00 25.7 5 Oeste 21 Sudoeste 0 952.5 -0.5 40
2019-10-04 13:00:00 25.2 7 Sudoeste 15 Sudeste 0 952.9 0.2 44
2019-10-04 12:00:00 23.3 8 Sur 14 Sur 0 953.1 0.7 51
2019-10-04 11:00:00 21.3 6 Sudoeste 12 Sudoeste 0 953 0.9 58
2019-10-04 10:00:00 19.7 2 Sur 6 Oeste 0 952.7 0.6 63
2019-10-04 09:00:00 15.1 4 Nordeste 8 Nordeste 0 952.4 0.3 75
2019-10-04 08:00:00 15.3 3 Este 7 Noroeste 0 952.1 0 77
2019-10-04 07:00:00 16.1 5 Noroeste 20 Noroeste 0 952.1 -0.4 78
2019-10-04 06:00:00 17.8 8 Nordeste 21 Noroeste 0 952.1 -0.6 72
2019-10-04 05:00:00 17 3 Noroeste 19 Noroeste 0 952.1 -0.9 75
2019-10-04 04:00:00 18.4 10 Norte 27 Noroeste 0 952.5 -0.4 68
2019-10-04 03:00:00 18.5 17 Noroeste 36 Noroeste 0 952.7 -0.5 72
2019-10-04 02:00:00 18.6 25 Noroeste 50 Noroeste 0 953 -0.4 71
2019-10-04 01:00:00 19.4 31 Norte 52 Norte 0 952.9 -0.4 66
2019-10-04 00:00:00 21 9 Norte 30 Norte 0 953.2 0 50
2019-10-03 23:00:00 20.3 4 Oeste 14 Norte 0 953.4 0.2 28
2019-10-03 22:00:00 20.5 3 Sur 8 Sudoeste 0 953.3 0.4 28
2019-10-03 21:00:00 20.9 2 Noroeste 9 Sudoeste 0 953.2 0.4 31
2019-10-03 20:00:00 23.9 6 Oeste 24 Noroeste 0 953.2 0.4 27
2019-10-03 19:00:00 25.6 14 Norte 33 Norte 0 952.9 -0.3 24
2019-10-03 18:00:00 26.5 19 Norte 36 Norte 0 952.8 -0.5 26
2019-10-03 17:00:00 27.1 18 Norte 33 Nordeste 0 952.8 -1.1 24
2019-10-03 16:00:00 28 12 Norte 27 Norte 0 953.2 -1 20
2019-10-03 15:00:00 27.6 13 Norte 27 Norte 0 953.3 -1.2 22
2019-10-03 14:00:00 27.7 9 Norte 20 Norte 0 953.9 -0.4 22
2019-10-03 13:00:00 28.3 9 Sudoeste 15 Sudoeste 0 954.2 0.4 22
2019-10-03 12:00:00 25 6 Norte 18 Norte 0 954.5 1.1 27
2019-10-03 11:00:00 23.2 4 Sur 9 Sur 0 954.3 1.3 33
2019-10-03 10:00:00 19.6 3 Norte 8 Noroeste 0 953.8 1.2 42
2019-10-03 09:00:00 15.7 4 Norte 12 Norte 0 953.4 0.7 49
2019-10-03 08:00:00 16.1 6 Noroeste 26 Norte 0 953 0.4 50
2019-10-03 07:00:00 18.2 16 Norte 23 Norte 0 952.6 -0.3 42
2019-10-03 06:00:00 17.6 6 Norte 21 Norte 0 952.7 -0.2 43
2019-10-03 05:00:00 18.1 9 Norte 27 Norte 0 952.6 -0.6 46
2019-10-03 04:00:00 17.7 6 Nordeste 23 Norte 0 952.9 0 47
2019-10-03 03:00:00 17.8 5 Sur 38 Norte 0 952.9 -0.5 49
2019-10-03 02:00:00 17.9 6 Sudoeste 39 Nordeste 0 953.2 0.2 47
2019-10-03 01:00:00 19 23 Norte 44 Nordeste 0 952.9 0.1 42
2019-10-03 00:00:00 19.6 15 Nordeste 39 Nordeste 0 953.4 0.9 39
2019-10-02 23:00:00 20.4 21 Norte 41 Norte 0 953 0.6 37
2019-10-02 22:00:00 20.7 14 Norte 32 Norte 0 952.8 0.5 37
2019-10-02 21:00:00 21.1 14 Norte 25 Norte 0 952.5 0.4 35
2019-10-02 20:00:00 22 14 Norte 27 Norte 0 952.4 0.1 32
2019-10-02 19:00:00 24.1 14 Norte 26 Norte 0 952.3 -0.2 29
2019-10-02 18:00:00 25.6 15 Noroeste 24 Noroeste 0 952.1 -0.6 22
2019-10-02 17:00:00 26 10 Norte 26 Nordeste 0 952.3 -0.8 23
2019-10-02 16:00:00 26.3 8 Noroeste 22 Nordeste 0 952.5 -0.7 30
2019-10-02 15:00:00 24.5 12 Norte 25 Norte 0 952.7 -0.8 32
2019-10-02 14:00:00 23.4 15 Norte 25 Norte 0 953.1 0 34
2019-10-02 13:00:00 23.7 5 Sur 16 Este 0 953.2 0.9 35
2019-10-02 12:00:00 21.4 5 Este 11 Este 0 953.5 1.3 42
2019-10-02 11:00:00 18.1 4 Sudoeste 12 Sur 0 953.1 1.3 54
2019-10-02 10:00:00 15.4 3 Oeste 28 Norte 0 952.3 1 65
2019-10-02 09:00:00 12.2 8 Norte 23 Noroeste 0 952.2 1.3 82
2019-10-02 08:00:00 12.2 19 Norte 35 Nordeste 0 951.8 1 84
2019-10-02 07:00:00 13.9 17 Nordeste 35 Nordeste 0 951.3 0.1 65
2019-10-02 06:00:00 15.5 16 Nordeste 46 Norte 0 950.9 -0.7 45
2019-10-02 05:00:00 15.8 25 Norte 49 Nordeste 0 950.8 -0.9 47
2019-10-02 04:00:00 15 20 Norte 57 Norte 0 951.2 -0.9 64
2019-10-02 03:00:00 15.5 21 Norte 54 Norte 0 951.6 -0.9 71
2019-10-02 02:00:00 16.4 26 Norte 51 Nordeste 0 951.7 -0.7 72
2019-10-02 01:00:00 17.5 31 Norte 57 Norte 0 952.1 -0.1 67
2019-10-02 00:00:00 18.9 19 Norte 39 Norte 0 952.5 0.8 59
2019-10-01 23:00:00 19.5 8 Noroeste 23 Noroeste 0 952.4 0.9 54
2019-10-01 22:00:00 19.8 4 Oeste 14 Oeste 0 952.2 1 54
2019-10-01 21:00:00 20.9 6 Oeste 21 Noroeste 0 951.7 0.5 51
2019-10-01 20:00:00 22.6 7 Noroeste 33 Norte 0 951.5 0.4 47
2019-10-01 19:00:00 23.6 16 Norte 42 Noroeste 0 951.2 0 44
2019-10-01 18:00:00 24.7 14 Norte 40 Noroeste 0 951.2 -0.2 44
2019-10-01 17:00:00 24.5 20 Norte 47 Norte 0 951.1 -0.4 41
2019-10-01 16:00:00 25.2 15 Norte 42 Norte 0 951.2 0.1 43
2019-10-01 15:00:00 24.2 18 Norte 45 Norte 0 951.4 0.1 45
2019-10-01 14:00:00 23.4 19 Norte 55 Norte 0 951.5 0.4 47
2019-10-01 13:00:00 21.2 28 Norte 55 Nordeste 0 951.1 0.5 51
2019-10-01 12:00:00 19.6 23 Norte 53 Norte 0 951.3 1.7 63
2019-10-01 11:00:00 17 19 Norte 40 Nordeste 0 951.1 1.8 76
2019-10-01 10:00:00 15.8 19 Nordeste 45 Norte 0 950.6 1.4 83
2019-10-01 09:00:00 15.7 28 Norte 45 Norte 0 949.6 0.2 83
2019-10-01 08:00:00 16.9 21 Norte 45 Norte 0 949.3 0.2 78
2019-10-01 07:00:00 17.7 18 Norte 43 Norte 0 949.2 -0.5 74
2019-10-01 06:00:00 18 22 Norte 41 Noroeste 0 949.4 -0.7 67
2019-10-01 05:00:00 20.9 16 Norte 27 Norte 0 949.1 -1.3 35
2019-10-01 04:00:00 20.6 6 Norte 28 Norte 0 949.7 -0.9 41
2019-10-01 03:00:00 20.2 8 Norte 33 Norte 0 950.1 -0.5 41
2019-10-01 02:00:00 20.9 23 Norte 34 Norte 0 950.4 -0.2 43
2019-10-01 01:00:00 21.5 18 Norte 26 Norte 0 950.6 0 41
2019-10-01 00:00:00 18.7 3 Este 5 Nordeste 0 950.6 0.3 39
2019-09-30 23:00:00 20.4 4 Oeste 9 Norte 0 950.6 0.3 38
2019-09-30 22:00:00 21.5 4 Norte 8 Noroeste 0 950.6 0.4 39
2019-09-30 21:00:00 23.6 4 Noroeste 15 Oeste 0 950.3 -0.3 34
2019-09-30 20:00:00 26.4 7 Sudoeste 17 Sudoeste 0 950.3 -0.7 31
2019-09-30 19:00:00 28.7 9 Sudoeste 23 Sudoeste 0 950.2 -0.8 25
2019-09-30 18:00:00 30.6 10 Oeste 31 Sudoeste 0 950.6 -0.8 23
2019-09-30 17:00:00 31.5 11 Sudoeste 27 Sudoeste 0 951 -1.3 22
2019-09-30 16:00:00 31.6 13 Oeste 24 Sudoeste 0 951 -1.5 19
2019-09-30 15:00:00 31.8 8 Sudoeste 22 Sudoeste 0 951.4 -1.3 18
2019-09-30 14:00:00 30.3 9 Oeste 22 Sur 0 952.3 -0.2 19
2019-09-30 13:00:00 29.6 7 Sudoeste 15 Sudoeste 0 952.5 0.2 20
2019-09-30 12:00:00 27.9 8 Sudoeste 14 Sudoeste 0 952.7 0.8 20
2019-09-30 11:00:00 25.3 4 Sur 7 Sur 0 952.5 1 26
2019-09-30 10:00:00 23.1 0 Calma 8 Nordeste 0 952.3 0.8 38
2019-09-30 09:00:00 18.5 2 Norte 5 Oeste 0 951.9 0.4 42
2019-09-30 08:00:00 18.6 2 Nordeste 7 Noroeste 0 951.5 -0.1 34
2019-09-30 07:00:00 18.3 2 Sudeste 5 Sur 0 951.5 -0.7 40
2019-09-30 06:00:00 18.6 0 Calma 4 Noroeste 0 951.5 -0.9 43
2019-09-30 05:00:00 19 2 Noroeste 10 Nordeste 0 951.6 -0.7 38
2019-09-30 04:00:00 20.6 3 Norte 23 Norte 0 952.2 -0.4 26
2019-09-30 03:00:00 22.4 11 Norte 33 Norte 0 952.4 -0.2 24
2019-09-30 02:00:00 22.3 11 Nordeste 23 Nordeste 0 952.3 -0.4 23
2019-09-30 01:00:00 20.3 3 Sudoeste 9 Oeste 0 952.6 -0.2 31
2019-09-30 00:00:00 19.3 4 Sudoeste 8 Sudoeste 0 952.6 0.5 51
2019-09-29 23:00:00 19.4 2 Norte 7 Nordeste 0 952.7 0.8 55
2019-09-29 22:00:00 20.5 2 Oeste 5 Noroeste 0 952.8 1 54
2019-09-29 21:00:00 23.1 4 Oeste 14 Oeste 0 952.1 0.3 45
2019-09-29 20:00:00 25.9 9 Oeste 23 Sudoeste 0 951.9 -0.3 39
2019-09-29 19:00:00 29.4 10 Sudoeste 19 Sudoeste 0 951.8 -0.7 23
2019-09-29 18:00:00 30.2 12 Sudoeste 22 Sudoeste 0 951.8 -1.3 22
2019-09-29 17:00:00 31.3 9 Sudoeste 27 Sudoeste 0 952.2 -1.6 21
2019-09-29 16:00:00 31 13 Sudoeste 23 Sudoeste 0 952.5 -1.3 20
2019-09-29 15:00:00 30.4 9 Oeste 19 Sur 0 953.1 -0.9 22
2019-09-29 14:00:00 29.4 6 Sur 18 Sudoeste 0 953.8 0.1 25
2019-09-29 13:00:00 27.8 6 Sudoeste 16 Sudoeste 0 953.8 0.7 30
2019-09-29 12:00:00 26.5 6 Sudoeste 14 Sudoeste 0 954 1.4 30
2019-09-29 11:00:00 24.3 7 Sudoeste 11 Sudoeste 0 953.7 1.4 36
2019-09-29 10:00:00 22.5 0 Calma 4 Este 0 953.1 1 44
2019-09-29 09:00:00 17.7 2 Oeste 9 Nordeste 0 952.6 0.6 46
2019-09-29 08:00:00 18.1 6 Nordeste 14 Nordeste 0 952.3 0.2 45
2019-09-29 07:00:00 18.7 8 Nordeste 15 Nordeste 0 952.1 -0.5 43
2019-09-29 06:00:00 19.7 10 Nordeste 13 Nordeste 0 952 -0.7 41
2019-09-29 05:00:00 19.4 2 Sur 9 Nordeste 0 952.1 -0.4 42
2019-09-29 04:00:00 20.6 7 Nordeste 13 Nordeste 0 952.6 -0.1 38
2019-09-29 03:00:00 21 5 Norte 24 Nordeste 0 952.7 -0.3 34
2019-09-29 02:00:00 22.7 19 Norte 37 Norte 0 952.5 -0.7 29
2019-09-29 01:00:00 23.3 25 Norte 35 Nordeste 0 952.7 -0.3 26
2019-09-29 00:00:00 20.9 6 Norte 13 Norte 0 953 0.4 37
2019-09-28 23:00:00 20.6 5 Norte 9 Norte 0 953.2 1.1 45
2019-09-28 22:00:00 22 0 Calma 10 Norte 0 953 0.9 45
2019-09-28 21:00:00 24.4 5 Noroeste 24 Oeste 0 952.6 0.7 37
2019-09-28 20:00:00 27.5 5 Noroeste 13 Sudoeste 0 952.1 -0.1 24
2019-09-28 19:00:00 30.6 8 Sudoeste 20 Sudoeste 0 952.1 -0.4 19
2019-09-28 18:00:00 32 9 Sudoeste 20 Sur 0 951.9 -1.3 18
2019-09-28 17:00:00 32.4 8 Sudoeste 23 Sudoeste 0 952.2 -1.6 18
2019-09-28 16:00:00 31.3 4 Sur 24 Sudoeste 0 952.5 -1.7 19
2019-09-28 15:00:00 31.5 11 Sudoeste 19 Sudoeste 0 953.2 -1.3 19
2019-09-28 14:00:00 30 6 Sudeste 20 Sudeste 0 953.8 -0.3 22
2019-09-28 13:00:00 30 8 Sur 19 Sur 0 954.2 0.4 23
2019-09-28 12:00:00 28.1 7 Sur 17 Sudoeste 0 954.5 1.1 25
2019-09-28 11:00:00 26.8 8 Sur 13 Sur 0 954.1 1.4 28
2019-09-28 10:00:00 23.1 2 Nordeste 8 Nordeste 0 953.8 1.1 42
2019-09-28 09:00:00 18.3 0 Calma 5 Nordeste 0 953.4 0.8 45
2019-09-28 08:00:00 18.7 5 Nordeste 11 Nordeste 0 952.7 0.1 40
2019-09-28 07:00:00 20.3 7 Nordeste 12 Nordeste 0 952.7 -0.2 35
2019-09-28 06:00:00 20.4 6 Nordeste 15 Nordeste 0 952.6 -0.5 35
2019-09-28 05:00:00 20.9 7 Norte 18 Norte 0 952.6 -0.8 33
2019-09-28 04:00:00 21.9 11 Norte 25 Norte 0 952.9 -0.7 31
2019-09-28 03:00:00 21.9 14 Norte 28 Norte 0 953.1 -0.3 30
2019-09-28 02:00:00 21.3 13 Norte 39 Norte 0 953.4 0.1 33
2019-09-28 01:00:00 21.9 26 Norte 44 Norte 0 953.6 0.6 30
2019-09-28 00:00:00 22.6 27 Norte 41 Nordeste 0 953.4 0.8 28
2019-09-27 23:00:00 23.5 24 Norte 36 Nordeste 0 953.3 0.9 28
2019-09-27 22:00:00 24.3 23 Norte 32 Norte 0 953 0.7 24
2019-09-27 21:00:00 24.6 16 Norte 29 Norte 0 952.6 0.3 22
2019-09-27 20:00:00 26.1 17 Norte 29 Norte 0 952.4 0 21
2019-09-27 19:00:00 28.2 13 Norte 23 Norte 0 952.3 -0.3 24
2019-09-27 18:00:00 29.2 11 Norte 23 Norte 0 952.3 -1 25
2019-09-27 17:00:00 29.3 15 Norte 28 Noroeste 0 952.4 -1.4 27
2019-09-27 16:00:00 30.8 13 Sudoeste 26 Sur 0 952.6 -1.3 27
2019-09-27 15:00:00 30.6 13 Sudoeste 25 Sur 0 953.3 -1 27
2019-09-27 14:00:00 30.1 9 Sudoeste 20 Sudoeste 0 953.8 -0.2 26
2019-09-27 13:00:00 28.5 7 Sudoeste 17 Sudoeste 0 953.9 0.3 29
2019-09-27 12:00:00 27.2 4 Sudoeste 14 Sudoeste 0 954.3 0.9 31
2019-09-27 11:00:00 25.8 6 Sudeste 12 Sudeste 0 954 0.8 35
2019-09-27 10:00:00 22.9 0 Calma 8 Oeste 0 953.6 0.7 49
2019-09-27 09:00:00 18.3 4 Norte 13 Norte 0 953.4 0.6 52
2019-09-27 08:00:00 17.8 7 Noroeste 16 Norte 0 953.2 0.2 53
2019-09-27 07:00:00 17.7 2 Sur 9 Nordeste 0 952.9 -0.4 53
2019-09-27 06:00:00 19.2 4 Nordeste 10 Nordeste 0 952.8 -0.6 49
2019-09-27 05:00:00 19.5 2 Norte 12 Noroeste 0 953 -0.3 48
2019-09-27 04:00:00 20.6 8 Norte 21 Norte 0 953.3 -0.1 44
2019-09-27 03:00:00 21.5 7 Norte 27 Norte 0 953.4 0 40
2019-09-27 02:00:00 22.3 22 Norte 32 Norte 0 953.3 -0.1 36
2019-09-27 01:00:00 22.4 19 Norte 30 Norte 0 953.4 0.4 34
2019-09-27 00:00:00 23 18 Norte 30 Norte 0 953.4 1 32
2019-09-26 23:00:00 22.7 19 Norte 30 Nordeste 0 953.4 0.9 35
2019-09-26 22:00:00 22.8 16 Norte 28 Norte 0 953 0.8 37
2019-09-26 21:00:00 23.4 14 Norte 19 Norte 0 952.4 0.2 38
2019-09-26 20:00:00 26.2 11 Norte 20 Noroeste 0 952.5 0.1 32
2019-09-26 19:00:00 29 10 Sudoeste 19 Sudoeste 0 952.2 -0.6 25
2019-09-26 18:00:00 29.9 10 Sudoeste 19 Sudoeste 0 952.2 -0.9 23
2019-09-26 17:00:00 29.5 5 Sudoeste 18 Sudoeste 0 952.4 -1.2 24
2019-09-26 16:00:00 30.1 7 Sur 21 Sudoeste 0 952.8 -1.2 25
2019-09-26 15:00:00 29.4 12 Sudoeste 20 Sudoeste 0 953.1 -1 25
2019-09-26 14:00:00 27.8 11 Sur 18 Sudoeste 0 953.6 -0.3 27
2019-09-26 13:00:00 27.2 10 Sudoeste 23 Oeste 0 954 0.6 29
2019-09-26 12:00:00 25.7 6 Sur 17 Sudoeste 0 954.1 1.2 32
2019-09-26 11:00:00 24.1 4 Sur 8 Sudoeste 0 953.9 1.4 34
2019-09-26 10:00:00 21.1 0 Calma 5 Nordeste 0 953.4 1.2 51
2019-09-26 09:00:00 15.9 2 Este 5 Nordeste 0 952.9 0.8 61
2019-09-26 08:00:00 15.9 0 Calma 8 Norte 0 952.5 0.4 60
2019-09-26 07:00:00 16.9 5 Norte 8 Nordeste 0 952.2 0.1 57
2019-09-26 06:00:00 17.4 6 Norte 14 Nordeste 0 952.1 -0.1 55
2019-09-26 05:00:00 18.4 9 Norte 22 Nordeste 0 952.1 -0.1 53
2019-09-26 04:00:00 18.4 10 Norte 27 Nordeste 0 952.1 -0.2 53
2019-09-26 03:00:00 18.7 12 Norte 32 Norte 0 952.2 -0.1 53
2019-09-26 02:00:00 18.7 23 Norte 44 Norte 0 952.2 -0.2 53
2019-09-26 01:00:00 18.6 29 Norte 48 Norte 0 952.3 0.2 52
2019-09-26 00:00:00 19.8 30 Norte 44 Nordeste 0 952.3 0.4 46
2019-09-25 23:00:00 20.2 24 Norte 41 Norte 0 952.4 0.6 45
2019-09-25 22:00:00 21 25 Norte 41 Nordeste 0 952.1 0.4 43
2019-09-25 21:00:00 21.6 18 Norte 30 Nordeste 0 951.9 0.1 40
2019-09-25 20:00:00 23.2 18 Norte 31 Norte 0 951.8 -0.1 36
2019-09-25 19:00:00 25 15 Noroeste 29 Noroeste 0 951.7 -0.6 32
2019-09-25 18:00:00 25.8 15 Norte 27 Noroeste 0 951.8 -0.9 31
2019-09-25 17:00:00 25.9 14 Norte 30 Noroeste 0 951.9 -1.3 32
2019-09-25 16:00:00 26.1 10 Norte 28 Norte 0 952.3 -1.3 35
2019-09-25 15:00:00 25.2 10 Norte 25 Noroeste 0 952.7 -1.1 32
2019-09-25 14:00:00 23.9 13 Norte 27 Norte 0 953.2 -0.4 34
2019-09-25 13:00:00 23.1 4 Nordeste 19 Nordeste 0 953.6 0.6 43
2019-09-25 12:00:00 19.9 10 Norte 26 Nordeste 0 953.8 1.3 53
2019-09-25 11:00:00 18 13 Norte 26 Norte 0 953.6 1.9 62
2019-09-25 10:00:00 16.5 6 Sudoeste 33 Norte 0 953 1.6 73
2019-09-25 09:00:00 14.6 6 Sudoeste 40 Nordeste 0 952.5 0.7 80
2019-09-25 08:00:00 14.4 27 Norte 57 Norte 0 951.7 -0.2 84
2019-09-25 07:00:00 14.7 35 Norte 58 Norte 0 951.4 -1 84
2019-09-25 06:00:00 15.2 19 Norte 39 Norte 0 951.8 -1.1 84
2019-09-25 05:00:00 15.6 15 Norte 40 Norte 0 951.9 -1.1 81
2019-09-25 04:00:00 16.2 14 Nordeste 37 Norte 0 952.4 -1 87
2019-09-25 03:00:00 17.4 14 Nordeste 49 Nordeste 0 952.9 -0.9 88
2019-09-25 02:00:00 17.9 17 Norte 42 Norte 0 953 -0.5 88
2019-09-25 01:00:00 19.1 23 Norte 41 Norte 0 953.4 0.2 87
2019-09-25 00:00:00 20.1 14 Norte 34 Norte 0 953.8 0.5 86
2019-09-24 23:00:00 20.5 24 Norte 52 Norte 0 953.5 0.4 82
2019-09-24 22:00:00 21.4 23 Norte 47 Norte 0 953.2 0.2 75
2019-09-24 21:00:00 22.7 5 Sur 25 Norte 0 953.3 0.5 62
2019-09-24 20:00:00 23.8 19 Norte 31 Norte 0 953.1 0 56
2019-09-24 19:00:00 25.9 17 Norte 33 Noroeste 0 953 -0.6 44
2019-09-24 18:00:00 28.6 11 Noroeste 23 Norte 0 952.8 -1.2 29
2019-09-24 17:00:00 29.1 9 Norte 22 Nordeste 0 953.1 -1.6 25
2019-09-24 16:00:00 29.3 12 Norte 21 Noroeste 0 953.6 -1.4 23
2019-09-24 15:00:00 27.9 10 Norte 22 Noroeste 0 954 -1.4 29
2019-09-24 14:00:00 27.8 9 Norte 18 Noroeste 0 954.7 -0.5 31
2019-09-24 13:00:00 28.5 7 Sudoeste 19 Sudoeste 0 955 0.3 30
2019-09-24 12:00:00 26.3 7 Sur 16 Sur 0 955.4 1 34
2019-09-24 11:00:00 23.8 4 Sudoeste 27 Nordeste 0 955.2 1 41
2019-09-24 10:00:00 20 13 Norte 33 Norte 0 954.7 0.7 52
2019-09-24 09:00:00 18.7 -- -- -- -- -- 954.4 0.5 51
2019-09-24 08:00:00 18.1 12 Norte 22 Norte 0 954.2 0.3 51
2019-09-24 07:00:00 16.4 3 Noroeste 8 Noroeste 0 954 -0.2 57
2019-09-24 06:00:00 16.3 4 Oeste 12 Norte 0 953.9 -0.4 56
2019-09-24 05:00:00 17 5 Noroeste 22 Norte 0 953.9 -0.6 53
2019-09-24 04:00:00 18.8 9 Norte 31 Norte 0 954.2 -0.4 47
2019-09-24 03:00:00 20 20 Norte 31 Nordeste 0 954.3 -0.5 43
2019-09-24 02:00:00 20.2 17 Norte 32 Norte 0 954.5 -0.1 41
2019-09-24 01:00:00 20.5 21 Norte 39 Nordeste 0 954.6 0.2 41
2019-09-24 00:00:00 20.6 26 Norte 44 Nordeste 0 954.8 0.9 41
2019-09-23 23:00:00 20.7 29 Norte 44 Nordeste 0 954.6 0.8 38
2019-09-23 22:00:00 21 26 Norte 46 Nordeste 0 954.4 0.6 37
2019-09-23 21:00:00 21.6 22 Norte 35 Nordeste 0 953.9 0.1 40
2019-09-23 20:00:00 23.5 17 Norte 25 Nordeste 0 953.8 -0.1 35
2019-09-23 19:00:00 26.1 6 Norte 16 Norte 0 953.8 -0.5 27
2019-09-23 18:00:00 27 5 Norte 13 Norte 0 953.8 -0.6 28
2019-09-23 17:00:00 26.5 4 Este 19 Sur 0 953.9 -1 30
2019-09-23 16:00:00 26.6 6 Noroeste 19 Sur 0 954.3 -0.9 31
2019-09-23 15:00:00 25.6 6 Sudoeste 15 Sur 0 954.4 -0.7 35
2019-09-23 14:00:00 24 6 Sur 15 Sudoeste 0 954.9 -0.1 37
2019-09-23 13:00:00 22.4 4 Este 18 Sudeste 0 955.2 0.5 33
2019-09-23 12:00:00 21.3 6 Sudeste 18 Sur 0 955.1 0.9 50
2019-09-23 11:00:00 18.4 7 Este 17 Este 0 955 1 58
2019-09-23 10:00:00 17 5 Este 22 Norte 0 954.7 1.3 64
2019-09-23 09:00:00 14.4 4 Nordeste 15 Nordeste 0 954.2 1 72
2019-09-23 08:00:00 14.5 10 Nordeste 20 Nordeste 0 954 0.9 71
2019-09-23 07:00:00 14.4 10 Nordeste 23 Nordeste 0 953.4 0.3 73
2019-09-23 06:00:00 14.6 12 Norte 31 Nordeste 0 953.2 0.1 72
2019-09-23 05:00:00 15 12 Norte 31 Nordeste 0 953.1 0 70
2019-09-23 04:00:00 15.1 11 Noroeste 25 Norte 0 953.1 -0.3 70
2019-09-23 03:00:00 15.2 17 Norte 27 Norte 0 953.1 -0.2 72
2019-09-23 02:00:00 15.4 15 Norte 37 Norte 0 953.1 -0.1 73
2019-09-23 01:00:00 16.1 21 Norte 36 Norte 0 953.4 0.4 69
2019-09-23 00:00:00 16.8 20 Norte 31 Norte 0 953.3 0.7 64
2019-09-22 23:00:00 16.7 13 Norte 19 Norte 0 953.2 1.1 69
2019-09-22 22:00:00 16 9 Norte 13 Norte 0 953 1.5 73
2019-09-22 21:00:00 16.9 12 Norte 14 Norte 0 952.6 1.2 68
2019-09-22 20:00:00 18.6 6 Norte 17 Norte 0 952.1 0.5 65
2019-09-22 19:00:00 19.5 10 Norte 16 Nordeste 0 951.5 -0.2 58
2019-09-22 18:00:00 19.7 10 Norte 23 Nordeste 0 951.4 -0.1 57
2019-09-22 17:00:00 20.4 12 Noroeste 32 Norte 0 951.6 0.2 54
2019-09-22 16:00:00 20 15 Norte 28 Noroeste 0 951.7 0.8 57
2019-09-22 15:00:00 19.7 14 Norte 35 Noroeste 0 951.5 0.6 62
2019-09-22 14:00:00 18.7 19 Norte 41 Norte 0 951.4 1 67
2019-09-22 13:00:00 18.1 27 Norte 48 Norte 0 950.9 1.4 67
2019-09-22 12:00:00 17.1 16 Norte 35 Norte 0 950.9 1.8 77
2019-09-22 11:00:00 15 18 Norte 45 Norte 0 950.4 1.9 84
2019-09-22 10:00:00 13.8 33 Norte 51 Norte 0 949.5 1.4 85
2019-09-22 09:00:00 13.2 35 Norte 52 Nordeste 0 949.1 1.2 85
2019-09-22 08:00:00 12.8 33 Norte 49 Nordeste 0 948.5 0.8 91
2019-09-22 07:00:00 14.4 10 Norte 27 Noroeste 0 948.1 -0.1 80
2019-09-22 06:00:00 15.9 9 Norte 29 Norte 0.2 947.9 -0.5 100
2019-09-22 05:00:00 17.1 5 Norte 11 Norte 1.8 947.7 -0.7 100
2019-09-22 04:00:00 16.9 7 Sudoeste 24 Sudoeste 2.8 948.2 -0.4 100
2019-09-22 03:00:00 16.7 7 Sudoeste 26 Sudoeste 3.8 948.4 -0.4 100
2019-09-22 02:00:00 16.9 9 Sudoeste 26 Sudoeste 0.6 948.4 -0.4 100
2019-09-22 01:00:00 17.2 14 Sudoeste 25 Sudoeste 1 948.6 0.7 100
2019-09-22 00:00:00 16.8 10 Sudoeste 34 Sudoeste 1.2 948.8 0.8 100
2019-09-21 23:00:00 17.3 20 Sudoeste 36 Sudoeste 0 948.8 0.9 100
2019-09-21 22:00:00 17.6 19 Sudoeste 36 Sudoeste 0.4 947.9 0.3 100
2019-09-21 21:00:00 17.8 18 Sudoeste 34 Sudoeste 0.2 948 0.3 100
2019-09-21 20:00:00 17.9 18 Sudoeste 30 Sudoeste 1 947.9 0 100
2019-09-21 19:00:00 18.2 13 Sudoeste 30 Sudoeste 0.2 947.6 -0.5 100
2019-09-21 18:00:00 18.9 19 Sudoeste 33 Sudoeste 0 947.7 -0.8 92
2019-09-21 17:00:00 18.4 14 Sudoeste 31 Sudoeste 0 947.9 -0.7 100
2019-09-21 16:00:00 17.9 17 Sudoeste 28 Sudoeste 0 948.1 -1 100
2019-09-21 15:00:00 17.6 11 Sudoeste 26 Sur 0.2 948.5 -0.7 100
2019-09-21 14:00:00 17.3 7 Sur 29 Sur 0.8 948.6 -0.2 100
2019-09-21 13:00:00 16.9 8 Sudoeste 18 Sur 1 949.1 0.9 100
2019-09-21 12:00:00 16.4 5 Sur 19 Sur 0.2 949.2 1.4 100
2019-09-21 11:00:00 16 3 Sudeste 8 Sur 0.2 948.8 1.2 100
2019-09-21 10:00:00 15.8 3 Sudeste 5 Sudeste 0 948.2 0.5 100
2019-09-21 09:00:00 15.5 2 Norte 6 Este 0 947.8 0 100
2019-09-21 08:00:00 15.2 3 Este 6 Sur 0 947.6 -0.1 100
2019-09-21 07:00:00 15.3 5 Sudoeste 8 Sudoeste 0 947.7 -0.4 100
2019-09-21 06:00:00 15.3 3 Sudoeste 10 Sudoeste 0 947.8 -0.6 100
2019-09-21 05:00:00 15.2 3 Sudeste 6 Este 0 947.7 -0.9 99
2019-09-21 04:00:00 15.1 3 Nordeste 7 Este 0 948.1 -0.6 99
2019-09-21 03:00:00 15.1 6 Nordeste 9 Nordeste 0 948.4 -0.6 97
2019-09-21 02:00:00 14.7 7 Nordeste 9 Nordeste 0 948.6 -0.5 96
2019-09-21 01:00:00 15.1 4 Nordeste 9 Nordeste 0 948.7 -0.1 91
2019-09-21 00:00:00 15.1 6 Nordeste 9 Nordeste 0 949 0.7 92
2019-09-20 23:00:00 15.4 2 Nordeste 9 Nordeste 0 949.1 0.7 87
2019-09-20 22:00:00 16.4 5 Nordeste 9 Este 0 948.8 0.7 82
2019-09-20 21:00:00 17.3 3 Nordeste 11 Sudoeste 0 948.3 -0.3 79
2019-09-20 20:00:00 19.7 8 Sudoeste 23 Sudoeste 0.2 948.4 -0.4 67
2019-09-20 19:00:00 19.4 8 Sur 18 Sudeste 0.4 948.1 -1 76
2019-09-20 18:00:00 20.5 11 Sudoeste 21 Sudoeste 0 948.6 -0.3 65
2019-09-20 17:00:00 21.3 10 Sudoeste 29 Sur 0 948.8 -0.5 62
2019-09-20 16:00:00 22.2 15 Sudoeste 34 Sudoeste 0 949.1 -0.5 63
2019-09-20 15:00:00 22.8 15 Sudoeste 36 Sudoeste 0 948.9 -1.2 58
2019-09-20 14:00:00 22.4 14 Sudoeste 33 Sudoeste 0 949.3 -0.6 62
2019-09-20 13:00:00 20.9 17 Sudoeste 30 Sudoeste 0 949.6 0.1 66
2019-09-20 12:00:00 21.2 9 Sur 22 Sudoeste 0 950.1 1.1 65
2019-09-20 11:00:00 18.4 7 Sudoeste 19 Sur 0 949.9 1.2 70
2019-09-20 10:00:00 17.9 7 Sur 10 Sur 0 949.5 0.9 66
2019-09-20 09:00:00 17.2 6 Sudeste 12 Sudeste 0 949 0.2 67
2019-09-20 08:00:00 16.2 6 Este 14 Sudeste 0 948.7 -0.1 69
2019-09-20 07:00:00 16.3 8 Este 12 Este 0 948.6 -0.6 69
2019-09-20 06:00:00 16.9 5 Sudeste 13 Sudeste 0 948.8 -0.8 67
2019-09-20 05:00:00 16.3 7 Este 11 Este 0 948.8 -0.9 75
2019-09-20 04:00:00 16.8 4 Este 9 Nordeste 0 949.2 -0.6 75
2019-09-20 03:00:00 17.4 6 Nordeste 9 Nordeste 0 949.6 -0.5 74
2019-09-20 02:00:00 18.8 9 Norte 21 Nordeste 0 949.7 -0.7 67
2019-09-20 01:00:00 19.5 7 Nordeste 18 Norte 0 949.8 -0.3 61
2019-09-20 00:00:00 18.1 3 Este 7 Sudoeste 0 950.1 0.6 72
2019-09-19 23:00:00 19.6 3 Norte 6 Oeste 0 950.4 1.2 65
2019-09-19 22:00:00 20.7 4 Oeste 13 Sudoeste 0 950.1 1 58
2019-09-19 21:00:00 22.8 4 Oeste 13 Sudoeste 0 949.5 0.3 46
2019-09-19 20:00:00 25 4 Sudoeste 17 Sudoeste 0 949.2 -0.3 37
2019-09-19 19:00:00 26.8 7 Sudoeste 17 Sudoeste 0 949.1 -0.7 33
2019-09-19 18:00:00 27.5 6 Sudeste 19 Sudoeste 0 949.2 -1.4 29
2019-09-19 17:00:00 27.7 8 Sur 23 Sur 0 949.5 -1.4 28
2019-09-19 16:00:00 28.6 6 Sudoeste 22 Sur 0 949.8 -1.6 25
2019-09-19 15:00:00 27.5 9 Sudeste 21 Sur 0 950.6 -1 31
2019-09-19 14:00:00 27 11 Sudoeste 24 Sudoeste 0 950.9 -0.4 32
2019-09-19 13:00:00 25.7 9 Sudoeste 18 Sudoeste 0 951.4 0.4 38
2019-09-19 12:00:00 24.2 6 Sudoeste 14 Sudoeste 0 951.6 1 46
2019-09-19 11:00:00 22.4 8 Sudoeste 13 Sur 0 951.3 0.8 53
2019-09-19 10:00:00 20.4 4 Sur 8 Sur 0 951 0.7 62
2019-09-19 09:00:00 16.5 8 Nordeste 10 Nordeste 0 950.6 0.4 73
2019-09-19 08:00:00 15.2 4 Nordeste 9 Este 0 950.5 0.1 75
2019-09-19 07:00:00 15.8 6 Nordeste 9 Nordeste 0 950.3 -0.2 72
2019-09-19 06:00:00 15.9 3 Nordeste 8 Nordeste 0 950.2 -0.8 73
2019-09-19 05:00:00 16.7 7 Nordeste 18 Norte 0 950.4 -0.4 71
2019-09-19 04:00:00 17.9 12 Norte 23 Norte 0 950.5 -0.5 67
2019-09-19 03:00:00 18.4 13 Norte 36 Norte 0 951 -0.2 64
2019-09-19 02:00:00 18 28 Norte 42 Norte 0 950.8 -0.5 64
2019-09-19 01:00:00 18.4 22 Norte 37 Norte 0 951 0 63
2019-09-19 00:00:00 19.1 9 Norte 18 Norte 0 951.2 0.7 60
2019-09-18 23:00:00 18 0 Calma 7 Este 0 951.3 1.1 62
2019-09-18 22:00:00 19.5 4 Norte 5 Sudoeste 0 951 1 57
2019-09-18 21:00:00 21.6 3 Norte 6 Sudoeste 0 950.5 0.4 50
2019-09-18 20:00:00 24.2 5 Noroeste 10 Sudoeste 0 950.2 0 42
2019-09-18 19:00:00 25.3 7 Sudoeste 18 Sudoeste 0 950 -0.6 38
2019-09-18 18:00:00 26 8 Sudoeste 26 Oeste 0 950.1 -0.7 39
2019-09-18 17:00:00 27.6 13 Sudoeste 25 Sudoeste 0 950.2 -1.1 38
2019-09-18 16:00:00 27.7 12 Sudoeste 23 Sudoeste 0 950.6 -0.7 39
2019-09-18 15:00:00 27.2 13 Sudoeste 26 Sudoeste 0 950.8 -0.5 40
2019-09-18 14:00:00 26.4 10 Sudoeste 21 Sudoeste 0 951.3 0.3 40
2019-09-18 13:00:00 24.8 9 Sur 18 Sur 0 951.3 0.6 44
2019-09-18 12:00:00 23.8 8 Sudeste 18 Sudeste 0 951.3 1.1 50
2019-09-18 11:00:00 21.5 6 Sur 12 Sur 0 951 1.2 60
2019-09-18 10:00:00 19.9 5 Sur 8 Nordeste 0 950.7 1.3 71
2019-09-18 09:00:00 16.1 6 Nordeste 12 Nordeste 0 950.2 0.8 85
2019-09-18 08:00:00 15.9 8 Nordeste 12 Nordeste 0 949.8 0.5 89
2019-09-18 07:00:00 16.4 8 Este 12 Este 0 949.4 0 91
2019-09-18 06:00:00 16.8 7 Nordeste 10 Nordeste 0 949.4 -0.2 90
2019-09-18 05:00:00 17.1 6 Nordeste 10 Este 0 949.3 -0.5 84
2019-09-18 04:00:00 16.9 6 Nordeste 8 Nordeste 0 949.4 -0.7 77
2019-09-18 03:00:00 17.7 4 Nordeste 8 Nordeste 0 949.6 -0.7 76
2019-09-18 02:00:00 18.8 7 Nordeste 22 Norte 0 949.8 -0.4 75
2019-09-18 01:00:00 20 11 Norte 22 Norte 0 950.1 0.4 75
2019-09-18 00:00:00 19.4 12 Norte 17 Norte 0 950.3 1.2 80
2019-09-17 23:00:00 20.1 4 Noroeste 6 Norte 0 950.2 1.3 76
2019-09-17 22:00:00 21.5 5 Oeste 21 Oeste 0 949.7 0.9 68
2019-09-17 21:00:00 22.8 10 Oeste 25 Sudoeste 0 949.1 0.3 61